sensor_id;sensor_type;location;lat;lon;timestamp;P1;durP1;ratioP1;P2;durP2;ratioP2
21665;SDS011;10994;45.486;9.190;2023-03-01T00:01:04;24.37;;;17.93;;
21665;SDS011;10994;45.486;9.190;2023-03-01T00:03:50;27.37;;;18.57;;
21665;SDS011;10994;45.486;9.190;2023-03-01T00:06:17;22.53;;;17.00;;
21665;SDS011;10994;45.486;9.190;2023-03-01T00:08:43;26.17;;;19.17;;
21665;SDS011;10994;45.486;9.190;2023-03-01T00:13:40;24.07;;;17.60;;
21665;SDS011;10994;45.486;9.190;2023-03-01T00:16:07;27.90;;;19.57;;
21665;SDS011;10994;45.486;9.190;2023-03-01T00:18:35;28.50;;;19.67;;
21665;SDS011;10994;45.486;9.190;2023-03-01T00:21:01;25.07;;;18.17;;
21665;SDS011;10994;45.486;9.190;2023-03-01T00:23:26;30.30;;;20.07;;
21665;SDS011;10994;45.486;9.190;2023-03-01T00:25:53;27.20;;;19.73;;
21665;SDS011;10994;45.486;9.190;2023-03-01T00:28:19;28.43;;;19.83;;
21665;SDS011;10994;45.486;9.190;2023-03-01T00:30:45;27.73;;;20.03;;
21665;SDS011;10994;45.486;9.190;2023-03-01T00:33:11;25.67;;;19.63;;
21665;SDS011;10994;45.486;9.190;2023-03-01T00:35:36;25.53;;;19.53;;
21665;SDS011;10994;45.486;9.190;2023-03-01T00:38:03;28.13;;;19.67;;
21665;SDS011;10994;45.486;9.190;2023-03-01T00:40:30;25.57;;;19.63;;
21665;SDS011;10994;45.486;9.190;2023-03-01T00:42:59;25.97;;;19.13;;
21665;SDS011;10994;45.486;9.190;2023-03-01T00:45:26;23.87;;;18.73;;
21665;SDS011;10994;45.486;9.190;2023-03-01T00:47:52;24.03;;;18.23;;
21665;SDS011;10994;45.486;9.190;2023-03-01T00:50:18;27.27;;;19.57;;
21665;SDS011;10994;45.486;9.190;2023-03-01T00:52:44;28.33;;;19.67;;
21665;SDS011;10994;45.486;9.190;2023-03-01T00:55:11;31.13;;;20.33;;
21665;SDS011;10994;45.486;9.190;2023-03-01T00:57:37;29.60;;;19.40;;
21665;SDS011;10994;45.486;9.190;2023-03-01T01:00:04;29.07;;;19.33;;
21665;SDS011;10994;45.486;9.190;2023-03-01T01:02:32;30.40;;;20.13;;
21665;SDS011;10994;45.486;9.190;2023-03-01T01:04:59;26.67;;;19.07;;
21665;SDS011;10994;45.486;9.190;2023-03-01T01:07:25;26.13;;;18.67;;
21665;SDS011;10994;45.486;9.190;2023-03-01T01:09:51;27.40;;;19.33;;
21665;SDS011;10994;45.486;9.190;2023-03-01T01:12:17;24.87;;;19.37;;
21665;SDS011;10994;45.486;9.190;2023-03-01T01:14:42;24.67;;;18.60;;
21665;SDS011;10994;45.486;9.190;2023-03-01T01:17:08;27.30;;;19.03;;
21665;SDS011;10994;45.486;9.190;2023-03-01T01:19:34;23.90;;;18.77;;
21665;SDS011;10994;45.486;9.190;2023-03-01T01:21:59;28.70;;;19.60;;
21665;SDS011;10994;45.486;9.190;2023-03-01T01:24:25;27.33;;;19.80;;
21665;SDS011;10994;45.486;9.190;2023-03-01T01:26:51;28.43;;;18.63;;
21665;SDS011;10994;45.486;9.190;2023-03-01T01:29:16;27.20;;;19.97;;
21665;SDS011;10994;45.486;9.190;2023-03-01T01:31:42;29.53;;;19.17;;
21665;SDS011;10994;45.486;9.190;2023-03-01T01:34:11;25.87;;;18.77;;
21665;SDS011;10994;45.486;9.190;2023-03-01T01:36:40;24.80;;;17.97;;
21665;SDS011;10994;45.486;9.190;2023-03-01T01:39:06;26.93;;;18.63;;
21665;SDS011;10994;45.486;9.190;2023-03-01T01:41:32;24.83;;;18.50;;
21665;SDS011;10994;45.486;9.190;2023-03-01T01:52:04;24.43;;;17.77;;
21665;SDS011;10994;45.486;9.190;2023-03-01T01:57:19;25.67;;;18.60;;
21665;SDS011;10994;45.486;9.190;2023-03-01T01:59:51;25.20;;;18.67;;
21665;SDS011;10994;45.486;9.190;2023-03-01T02:02:20;24.13;;;18.07;;
21665;SDS011;10994;45.486;9.190;2023-03-01T02:04:46;25.03;;;17.73;;
21665;SDS011;10994;45.486;9.190;2023-03-01T02:07:15;26.23;;;16.87;;
21665;SDS011;10994;45.486;9.190;2023-03-01T02:09:50;22.77;;;17.77;;
21665;SDS011;10994;45.486;9.190;2023-03-01T02:12:18;24.57;;;18.10;;
21665;SDS011;10994;45.486;9.190;2023-03-01T02:14:46;26.63;;;18.30;;
21665;SDS011;10994;45.486;9.190;2023-03-01T02:17:12;23.33;;;17.33;;
21665;SDS011;10994;45.486;9.190;2023-03-01T02:22:28;22.03;;;17.17;;
21665;SDS011;10994;45.486;9.190;2023-03-01T02:25:44;24.07;;;17.17;;
21665;SDS011;10994;45.486;9.190;2023-03-01T02:30:18;26.33;;;18.10;;
21665;SDS011;10994;45.486;9.190;2023-03-01T02:32:45;22.20;;;16.33;;
21665;SDS011;10994;45.486;9.190;2023-03-01T02:35:13;25.33;;;18.30;;
21665;SDS011;10994;45.486;9.190;2023-03-01T02:37:41;23.97;;;17.37;;
21665;SDS011;10994;45.486;9.190;2023-03-01T02:40:09;26.03;;;17.90;;
21665;SDS011;10994;45.486;9.190;2023-03-01T02:42:49;23.30;;;16.70;;
21665;SDS011;10994;45.486;9.190;2023-03-01T02:45:18;24.07;;;17.03;;
21665;SDS011;10994;45.486;9.190;2023-03-01T02:47:44;23.80;;;16.50;;
21665;SDS011;10994;45.486;9.190;2023-03-01T02:50:18;26.40;;;18.23;;
21665;SDS011;10994;45.486;9.190;2023-03-01T02:52:55;23.43;;;17.17;;
21665;SDS011;10994;45.486;9.190;2023-03-01T02:55:26;23.63;;;17.07;;
21665;SDS011;10994;45.486;9.190;2023-03-01T02:57:53;26.23;;;18.37;;
21665;SDS011;10994;45.486;9.190;2023-03-01T03:00:21;22.37;;;17.07;;
21665;SDS011;10994;45.486;9.190;2023-03-01T03:02:54;21.83;;;16.93;;
21665;SDS011;10994;45.486;9.190;2023-03-01T03:05:24;24.43;;;17.33;;
21665;SDS011;10994;45.486;9.190;2023-03-01T03:07:56;21.90;;;17.03;;
21665;SDS011;10994;45.486;9.190;2023-03-01T03:10:25;23.03;;;16.67;;
21665;SDS011;10994;45.486;9.190;2023-03-01T03:12:54;22.43;;;17.37;;
21665;SDS011;10994;45.486;9.190;2023-03-01T03:15:22;23.00;;;17.40;;
21665;SDS011;10994;45.486;9.190;2023-03-01T03:17:49;23.20;;;16.43;;
21665;SDS011;10994;45.486;9.190;2023-03-01T03:20:16;21.17;;;16.40;;
21665;SDS011;10994;45.486;9.190;2023-03-01T03:22:47;22.13;;;17.23;;
21665;SDS011;10994;45.486;9.190;2023-03-01T03:25:17;21.27;;;16.77;;
21665;SDS011;10994;45.486;9.190;2023-03-01T03:27:44;22.27;;;17.00;;
21665;SDS011;10994;45.486;9.190;2023-03-01T03:30:12;22.07;;;16.80;;
21665;SDS011;10994;45.486;9.190;2023-03-01T03:32:40;24.57;;;16.13;;
21665;SDS011;10994;45.486;9.190;2023-03-01T03:35:08;21.47;;;15.87;;
21665;SDS011;10994;45.486;9.190;2023-03-01T03:37:40;21.20;;;15.67;;
21665;SDS011;10994;45.486;9.190;2023-03-01T03:40:26;22.50;;;16.80;;
21665;SDS011;10994;45.486;9.190;2023-03-01T03:42:52;20.87;;;15.60;;
21665;SDS011;10994;45.486;9.190;2023-03-01T03:45:18;24.67;;;16.27;;
21665;SDS011;10994;45.486;9.190;2023-03-01T03:47:43;22.07;;;16.33;;
21665;SDS011;10994;45.486;9.190;2023-03-01T03:50:13;20.97;;;16.40;;
21665;SDS011;10994;45.486;9.190;2023-03-01T03:52:40;23.77;;;17.27;;
21665;SDS011;10994;45.486;9.190;2023-03-01T03:55:07;22.77;;;17.03;;
21665;SDS011;10994;45.486;9.190;2023-03-01T03:57:34;23.03;;;17.40;;
21665;SDS011;10994;45.486;9.190;2023-03-01T04:00:00;23.37;;;15.90;;
21665;SDS011;10994;45.486;9.190;2023-03-01T04:02:37;25.17;;;15.83;;
21665;SDS011;10994;45.486;9.190;2023-03-01T04:05:03;20.90;;;16.20;;
21665;SDS011;10994;45.486;9.190;2023-03-01T04:07:29;23.90;;;17.50;;
21665;SDS011;10994;45.486;9.190;2023-03-01T04:09:55;25.33;;;16.40;;
21665;SDS011;10994;45.486;9.190;2023-03-01T04:12:21;24.23;;;16.27;;
21665;SDS011;10994;45.486;9.190;2023-03-01T04:14:48;26.57;;;17.07;;
21665;SDS011;10994;45.486;9.190;2023-03-01T04:17:14;25.53;;;17.27;;
21665;SDS011;10994;45.486;9.190;2023-03-01T04:19:40;22.77;;;16.20;;
21665;SDS011;10994;45.486;9.190;2023-03-01T04:22:09;22.70;;;16.37;;
21665;SDS011;10994;45.486;9.190;2023-03-01T04:24:36;22.60;;;16.20;;
21665;SDS011;10994;45.486;9.190;2023-03-01T04:27:02;22.67;;;16.23;;
21665;SDS011;10994;45.486;9.190;2023-03-01T04:29:29;22.67;;;16.13;;
21665;SDS011;10994;45.486;9.190;2023-03-01T04:31:55;22.37;;;16.03;;
21665;SDS011;10994;45.486;9.190;2023-03-01T04:34:21;23.90;;;16.03;;
21665;SDS011;10994;45.486;9.190;2023-03-01T04:36:47;23.63;;;16.03;;
21665;SDS011;10994;45.486;9.190;2023-03-01T04:39:13;23.90;;;16.57;;
21665;SDS011;10994;45.486;9.190;2023-03-01T04:41:40;23.53;;;16.73;;
21665;SDS011;10994;45.486;9.190;2023-03-01T04:44:08;21.00;;;16.23;;
21665;SDS011;10994;45.486;9.190;2023-03-01T04:46:34;21.70;;;15.77;;
21665;SDS011;10994;45.486;9.190;2023-03-01T04:49:00;23.57;;;16.13;;
21665;SDS011;10994;45.486;9.190;2023-03-01T04:51:27;23.00;;;17.10;;
21665;SDS011;10994;45.486;9.190;2023-03-01T04:53:53;26.80;;;17.77;;
21665;SDS011;10994;45.486;9.190;2023-03-01T04:56:19;23.47;;;16.70;;
21665;SDS011;10994;45.486;9.190;2023-03-01T04:58:47;22.83;;;16.60;;
21665;SDS011;10994;45.486;9.190;2023-03-01T05:01:17;23.63;;;17.87;;
21665;SDS011;10994;45.486;9.190;2023-03-01T05:03:44;22.77;;;16.60;;
21665;SDS011;10994;45.486;9.190;2023-03-01T05:06:11;26.40;;;17.97;;
21665;SDS011;10994;45.486;9.190;2023-03-01T05:08:37;22.47;;;16.33;;
21665;SDS011;10994;45.486;9.190;2023-03-01T05:11:04;23.33;;;17.97;;
21665;SDS011;10994;45.486;9.190;2023-03-01T05:13:30;22.57;;;17.00;;
21665;SDS011;10994;45.486;9.190;2023-03-01T05:16:00;27.57;;;16.40;;
21665;SDS011;10994;45.486;9.190;2023-03-01T05:18:27;20.37;;;15.27;;
21665;SDS011;10994;45.486;9.190;2023-03-01T05:20:55;20.47;;;14.97;;
21665;SDS011;10994;45.486;9.190;2023-03-01T05:23:23;26.77;;;18.17;;
21665;SDS011;10994;45.486;9.190;2023-03-01T05:25:49;27.43;;;17.90;;
21665;SDS011;10994;45.486;9.190;2023-03-01T05:28:17;25.73;;;15.90;;
21665;SDS011;10994;45.486;9.190;2023-03-01T05:30:44;23.87;;;16.37;;
21665;SDS011;10994;45.486;9.190;2023-03-01T05:33:10;25.50;;;16.73;;
21665;SDS011;10994;45.486;9.190;2023-03-01T05:35:41;27.60;;;17.73;;
21665;SDS011;10994;45.486;9.190;2023-03-01T05:38:08;28.30;;;17.90;;
21665;SDS011;10994;45.486;9.190;2023-03-01T05:40:38;25.33;;;17.77;;
21665;SDS011;10994;45.486;9.190;2023-03-01T05:43:04;27.50;;;17.80;;
21665;SDS011;10994;45.486;9.190;2023-03-01T05:45:30;22.07;;;16.73;;
21665;SDS011;10994;45.486;9.190;2023-03-01T05:47:57;28.90;;;17.10;;
21665;SDS011;10994;45.486;9.190;2023-03-01T05:50:25;21.77;;;16.43;;
21665;SDS011;10994;45.486;9.190;2023-03-01T05:52:54;25.47;;;17.50;;
21665;SDS011;10994;45.486;9.190;2023-03-01T05:55:22;24.23;;;17.60;;
21665;SDS011;10994;45.486;9.190;2023-03-01T05:57:49;26.90;;;16.77;;
21665;SDS011;10994;45.486;9.190;2023-03-01T06:00:16;25.50;;;17.47;;
21665;SDS011;10994;45.486;9.190;2023-03-01T06:02:43;25.87;;;17.73;;
21665;SDS011;10994;45.486;9.190;2023-03-01T06:05:09;23.53;;;17.00;;
21665;SDS011;10994;45.486;9.190;2023-03-01T06:07:35;24.63;;;16.47;;
21665;SDS011;10994;45.486;9.190;2023-03-01T06:10:02;22.50;;;16.47;;
21665;SDS011;10994;45.486;9.190;2023-03-01T06:12:35;26.20;;;17.63;;
21665;SDS011;10994;45.486;9.190;2023-03-01T06:15:01;22.60;;;16.90;;
21665;SDS011;10994;45.486;9.190;2023-03-01T06:17:31;28.43;;;19.83;;
21665;SDS011;10994;45.486;9.190;2023-03-01T06:19:57;24.20;;;17.17;;
21665;SDS011;10994;45.486;9.190;2023-03-01T06:22:24;24.57;;;17.10;;
21665;SDS011;10994;45.486;9.190;2023-03-01T06:24:50;27.93;;;17.70;;
21665;SDS011;10994;45.486;9.190;2023-03-01T06:27:16;23.90;;;16.97;;
21665;SDS011;10994;45.486;9.190;2023-03-01T06:29:42;30.67;;;18.37;;
21665;SDS011;10994;45.486;9.190;2023-03-01T06:32:08;25.50;;;15.80;;
21665;SDS011;10994;45.486;9.190;2023-03-01T06:34:34;24.53;;;16.97;;
21665;SDS011;10994;45.486;9.190;2023-03-01T06:37:00;25.93;;;17.93;;
21665;SDS011;10994;45.486;9.190;2023-03-01T06:39:30;26.90;;;17.07;;
21665;SDS011;10994;45.486;9.190;2023-03-01T06:41:56;26.73;;;16.70;;
21665;SDS011;10994;45.486;9.190;2023-03-01T06:44:22;24.43;;;17.10;;
21665;SDS011;10994;45.486;9.190;2023-03-01T06:46:48;24.10;;;17.20;;
21665;SDS011;10994;45.486;9.190;2023-03-01T06:49:14;25.00;;;16.37;;
21665;SDS011;10994;45.486;9.190;2023-03-01T06:51:42;27.13;;;17.30;;
21665;SDS011;10994;45.486;9.190;2023-03-01T06:54:09;29.83;;;16.97;;
21665;SDS011;10994;45.486;9.190;2023-03-01T06:56:35;17.07;;;11.83;;
21665;SDS011;10994;45.486;9.190;2023-03-01T06:59:01;12.37;;;10.07;;
21665;SDS011;10994;45.486;9.190;2023-03-01T07:01:28;14.43;;;11.47;;
21665;SDS011;10994;45.486;9.190;2023-03-01T07:03:56;15.20;;;10.97;;
21665;SDS011;10994;45.486;9.190;2023-03-01T07:06:23;12.03;;;8.33;;
21665;SDS011;10994;45.486;9.190;2023-03-01T07:08:49;16.10;;;10.03;;
21665;SDS011;10994;45.486;9.190;2023-03-01T07:11:15;14.23;;;9.33;;
21665;SDS011;10994;45.486;9.190;2023-03-01T07:13:41;10.50;;;7.97;;
21665;SDS011;10994;45.486;9.190;2023-03-01T07:16:07;12.40;;;8.50;;
21665;SDS011;10994;45.486;9.190;2023-03-01T07:18:34;12.90;;;8.37;;
21665;SDS011;10994;45.486;9.190;2023-03-01T07:21:03;9.63;;;7.53;;
21665;SDS011;10994;45.486;9.190;2023-03-01T07:23:30;13.83;;;9.30;;
21665;SDS011;10994;45.486;9.190;2023-03-01T07:25:56;12.77;;;9.20;;
21665;SDS011;10994;45.486;9.190;2023-03-01T07:28:22;11.47;;;8.60;;
21665;SDS011;10994;45.486;9.190;2023-03-01T07:30:48;12.40;;;8.70;;
21665;SDS011;10994;45.486;9.190;2023-03-01T07:33:15;14.40;;;9.37;;
21665;SDS011;10994;45.486;9.190;2023-03-01T07:35:41;12.83;;;9.20;;
21665;SDS011;10994;45.486;9.190;2023-03-01T07:38:07;13.43;;;9.63;;
21665;SDS011;10994;45.486;9.190;2023-03-01T07:40:33;10.57;;;8.13;;
21665;SDS011;10994;45.486;9.190;2023-03-01T07:42:59;13.73;;;8.77;;
21665;SDS011;10994;45.486;9.190;2023-03-01T07:45:26;12.43;;;9.47;;
21665;SDS011;10994;45.486;9.190;2023-03-01T07:47:53;15.37;;;10.50;;
21665;SDS011;10994;45.486;9.190;2023-03-01T07:50:19;18.03;;;12.47;;
21665;SDS011;10994;45.486;9.190;2023-03-01T07:52:46;16.00;;;10.93;;
21665;SDS011;10994;45.486;9.190;2023-03-01T07:55:13;17.57;;;11.40;;
21665;SDS011;10994;45.486;9.190;2023-03-01T07:57:39;18.43;;;10.70;;
21665;SDS011;10994;45.486;9.190;2023-03-01T08:00:06;15.47;;;10.30;;
21665;SDS011;10994;45.486;9.190;2023-03-01T08:02:37;14.30;;;10.57;;
21665;SDS011;10994;45.486;9.190;2023-03-01T08:05:03;17.43;;;10.63;;
21665;SDS011;10994;45.486;9.190;2023-03-01T08:07:29;16.47;;;9.97;;
21665;SDS011;10994;45.486;9.190;2023-03-01T08:09:55;14.37;;;11.23;;
21665;SDS011;10994;45.486;9.190;2023-03-01T08:12:21;15.57;;;11.43;;
21665;SDS011;10994;45.486;9.190;2023-03-01T08:14:47;22.77;;;13.00;;
21665;SDS011;10994;45.486;9.190;2023-03-01T08:17:14;16.07;;;11.20;;
21665;SDS011;10994;45.486;9.190;2023-03-01T08:19:40;16.07;;;11.83;;
21665;SDS011;10994;45.486;9.190;2023-03-01T08:22:06;18.33;;;12.03;;
21665;SDS011;10994;45.486;9.190;2023-03-01T08:24:32;17.83;;;13.83;;
21665;SDS011;10994;45.486;9.190;2023-03-01T08:26:58;22.27;;;15.97;;
21665;SDS011;10994;45.486;9.190;2023-03-01T08:29:24;21.37;;;15.13;;
21665;SDS011;10994;45.486;9.190;2023-03-01T08:31:50;19.93;;;15.27;;
21665;SDS011;10994;45.486;9.190;2023-03-01T08:34:17;22.30;;;14.73;;
21665;SDS011;10994;45.486;9.190;2023-03-01T08:36:44;23.40;;;15.03;;
21665;SDS011;10994;45.486;9.190;2023-03-01T08:39:11;19.77;;;14.20;;
21665;SDS011;10994;45.486;9.190;2023-03-01T08:41:38;23.00;;;15.10;;
21665;SDS011;10994;45.486;9.190;2023-03-01T08:44:04;22.70;;;16.00;;
21665;SDS011;10994;45.486;9.190;2023-03-01T08:46:31;21.43;;;14.73;;
21665;SDS011;10994;45.486;9.190;2023-03-01T08:48:57;21.67;;;14.20;;
21665;SDS011;10994;45.486;9.190;2023-03-01T08:51:26;21.67;;;14.43;;
21665;SDS011;10994;45.486;9.190;2023-03-01T08:53:52;21.07;;;14.33;;
21665;SDS011;10994;45.486;9.190;2023-03-01T08:56:18;20.33;;;14.40;;
21665;SDS011;10994;45.486;9.190;2023-03-01T08:58:45;18.17;;;13.13;;
21665;SDS011;10994;45.486;9.190;2023-03-01T09:01:13;19.27;;;13.57;;
21665;SDS011;10994;45.486;9.190;2023-03-01T09:03:39;21.23;;;13.93;;
21665;SDS011;10994;45.486;9.190;2023-03-01T09:06:06;30.73;;;18.30;;
21665;SDS011;10994;45.486;9.190;2023-03-01T09:08:39;18.60;;;13.77;;
21665;SDS011;10994;45.486;9.190;2023-03-01T09:11:06;21.27;;;15.30;;
21665;SDS011;10994;45.486;9.190;2023-03-01T09:13:32;23.80;;;13.70;;
21665;SDS011;10994;45.486;9.190;2023-03-01T09:15:59;22.07;;;13.20;;
21665;SDS011;10994;45.486;9.190;2023-03-01T09:18:26;18.03;;;13.20;;
21665;SDS011;10994;45.486;9.190;2023-03-01T09:20:52;19.27;;;13.70;;
21665;SDS011;10994;45.486;9.190;2023-03-01T09:23:21;22.43;;;14.10;;
21665;SDS011;10994;45.486;9.190;2023-03-01T09:25:47;16.40;;;12.23;;
21665;SDS011;10994;45.486;9.190;2023-03-01T09:28:13;18.30;;;13.13;;
21665;SDS011;10994;45.486;9.190;2023-03-01T09:30:39;20.37;;;14.37;;
21665;SDS011;10994;45.486;9.190;2023-03-01T09:33:05;18.60;;;13.30;;
21665;SDS011;10994;45.486;9.190;2023-03-01T09:35:31;18.57;;;13.00;;
21665;SDS011;10994;45.486;9.190;2023-03-01T09:37:57;19.73;;;14.33;;
21665;SDS011;10994;45.486;9.190;2023-03-01T09:40:24;20.33;;;14.17;;
21665;SDS011;10994;45.486;9.190;2023-03-01T09:45:59;18.70;;;12.63;;
21665;SDS011;10994;45.486;9.190;2023-03-01T09:48:33;20.40;;;13.37;;
21665;SDS011;10994;45.486;9.190;2023-03-01T09:51:08;18.70;;;13.23;;
21665;SDS011;10994;45.486;9.190;2023-03-01T09:53:42;18.87;;;14.00;;
21665;SDS011;10994;45.486;9.190;2023-03-01T09:58:54;20.10;;;13.93;;
21665;SDS011;10994;45.486;9.190;2023-03-01T10:06:54;19.43;;;13.70;;
21665;SDS011;10994;45.486;9.190;2023-03-01T10:09:22;17.97;;;13.00;;
21665;SDS011;10994;45.486;9.190;2023-03-01T10:11:49;17.00;;;12.60;;
21665;SDS011;10994;45.486;9.190;2023-03-01T10:14:24;22.23;;;12.50;;
21665;SDS011;10994;45.486;9.190;2023-03-01T10:16:54;20.47;;;13.53;;
21665;SDS011;10994;45.486;9.190;2023-03-01T10:21:49;22.17;;;13.33;;
21665;SDS011;10994;45.486;9.190;2023-03-01T10:24:17;17.13;;;12.57;;
21665;SDS011;10994;45.486;9.190;2023-03-01T10:26:54;19.53;;;12.70;;
21665;SDS011;10994;45.486;9.190;2023-03-01T10:29:41;15.20;;;11.57;;
21665;SDS011;10994;45.486;9.190;2023-03-01T10:32:14;14.97;;;10.03;;
21665;SDS011;10994;45.486;9.190;2023-03-01T10:34:40;16.33;;;10.03;;
21665;SDS011;10994;45.486;9.190;2023-03-01T10:37:10;16.43;;;10.17;;
21665;SDS011;10994;45.486;9.190;2023-03-01T10:39:37;14.23;;;10.37;;
21665;SDS011;10994;45.486;9.190;2023-03-01T10:42:21;14.63;;;10.40;;
21665;SDS011;10994;45.486;9.190;2023-03-01T10:44:48;15.53;;;10.13;;
21665;SDS011;10994;45.486;9.190;2023-03-01T10:47:19;14.70;;;10.27;;
21665;SDS011;10994;45.486;9.190;2023-03-01T10:49:59;20.37;;;11.60;;
21665;SDS011;10994;45.486;9.190;2023-03-01T10:52:28;14.90;;;10.87;;
21665;SDS011;10994;45.486;9.190;2023-03-01T10:55:02;18.00;;;12.97;;
21665;SDS011;10994;45.486;9.190;2023-03-01T10:57:30;17.47;;;12.63;;
21665;SDS011;10994;45.486;9.190;2023-03-01T11:00:02;17.43;;;12.00;;
21665;SDS011;10994;45.486;9.190;2023-03-01T11:02:36;20.40;;;14.50;;
21665;SDS011;10994;45.486;9.190;2023-03-01T11:05:23;17.60;;;12.83;;
21665;SDS011;10994;45.486;9.190;2023-03-01T11:07:55;17.93;;;12.47;;
21665;SDS011;10994;45.486;9.190;2023-03-01T11:10:23;17.97;;;13.97;;
21665;SDS011;10994;45.486;9.190;2023-03-01T11:12:50;21.33;;;13.00;;
21665;SDS011;10994;45.486;9.190;2023-03-01T11:15:24;18.67;;;13.63;;
21665;SDS011;10994;45.486;9.190;2023-03-01T11:17:51;18.40;;;13.27;;
21665;SDS011;10994;45.486;9.190;2023-03-01T11:22:55;17.57;;;13.33;;
21665;SDS011;10994;45.486;9.190;2023-03-01T11:25:26;20.37;;;13.50;;
21665;SDS011;10994;45.486;9.190;2023-03-01T11:27:53;20.60;;;13.67;;
21665;SDS011;10994;45.486;9.190;2023-03-01T11:30:21;16.03;;;12.73;;
21665;SDS011;10994;45.486;9.190;2023-03-01T11:35:34;19.73;;;12.37;;
21665;SDS011;10994;45.486;9.190;2023-03-01T11:40:48;21.43;;;13.40;;
21665;SDS011;10994;45.486;9.190;2023-03-01T11:51:22;18.57;;;12.73;;
21665;SDS011;10994;45.486;9.190;2023-03-01T11:56:35;17.97;;;13.03;;
21665;SDS011;10994;45.486;9.190;2023-03-01T12:07:37;18.80;;;13.30;;
21665;SDS011;10994;45.486;9.190;2023-03-01T12:10:15;17.77;;;13.33;;
21665;SDS011;10994;45.486;9.190;2023-03-01T12:20:58;21.33;;;14.33;;
21665;SDS011;10994;45.486;9.190;2023-03-01T12:24:01;17.87;;;13.50;;
21665;SDS011;10994;45.486;9.190;2023-03-01T12:26:33;18.40;;;14.30;;
21665;SDS011;10994;45.486;9.190;2023-03-01T12:29:34;23.07;;;14.07;;
21665;SDS011;10994;45.486;9.190;2023-03-01T12:32:24;18.83;;;13.83;;
21665;SDS011;10994;45.486;9.190;2023-03-01T12:44:07;18.70;;;13.23;;
21665;SDS011;10994;45.486;9.190;2023-03-01T12:47:00;20.43;;;13.40;;
21665;SDS011;10994;45.486;9.190;2023-03-01T12:50:01;19.80;;;14.57;;
21665;SDS011;10994;45.486;9.190;2023-03-01T12:52:37;20.97;;;13.03;;
21665;SDS011;10994;45.486;9.190;2023-03-01T12:55:16;21.10;;;14.03;;
21665;SDS011;10994;45.486;9.190;2023-03-01T13:11:59;18.57;;;13.67;;
21665;SDS011;10994;45.486;9.190;2023-03-01T13:16:51;19.20;;;13.50;;
21665;SDS011;10994;45.486;9.190;2023-03-01T13:19:19;22.27;;;14.30;;
21665;SDS011;10994;45.486;9.190;2023-03-01T13:21:49;17.43;;;13.10;;
21665;SDS011;10994;45.486;9.190;2023-03-01T13:29:51;19.97;;;14.40;;
21665;SDS011;10994;45.486;9.190;2023-03-01T13:32:27;17.37;;;13.83;;
21665;SDS011;10994;45.486;9.190;2023-03-01T13:34:54;19.30;;;13.83;;
21665;SDS011;10994;45.486;9.190;2023-03-01T13:37:25;17.17;;;13.77;;
21665;SDS011;10994;45.486;9.190;2023-03-01T13:39:52;20.90;;;14.60;;
21665;SDS011;10994;45.486;9.190;2023-03-01T13:42:30;21.80;;;14.47;;
21665;SDS011;10994;45.486;9.190;2023-03-01T13:44:57;20.90;;;14.50;;
21665;SDS011;10994;45.486;9.190;2023-03-01T13:47:23;16.70;;;13.67;;
21665;SDS011;10994;45.486;9.190;2023-03-01T13:50:00;20.47;;;14.03;;
21665;SDS011;10994;45.486;9.190;2023-03-01T13:52:37;18.77;;;13.13;;
21665;SDS011;10994;45.486;9.190;2023-03-01T13:57:39;21.97;;;14.70;;
21665;SDS011;10994;45.486;9.190;2023-03-01T14:00:05;19.30;;;14.83;;
21665;SDS011;10994;45.486;9.190;2023-03-01T14:02:33;21.43;;;13.73;;
21665;SDS011;10994;45.486;9.190;2023-03-01T14:05:01;19.97;;;14.70;;
21665;SDS011;10994;45.486;9.190;2023-03-01T14:07:28;28.87;;;15.63;;
21665;SDS011;10994;45.486;9.190;2023-03-01T14:09:58;18.90;;;13.67;;
21665;SDS011;10994;45.486;9.190;2023-03-01T14:15:19;20.87;;;14.17;;
21665;SDS011;10994;45.486;9.190;2023-03-01T14:20:30;21.83;;;14.57;;
21665;SDS011;10994;45.486;9.190;2023-03-01T14:23:01;20.97;;;15.00;;
21665;SDS011;10994;45.486;9.190;2023-03-01T14:30:37;20.50;;;13.30;;
21665;SDS011;10994;45.486;9.190;2023-03-01T14:33:05;24.77;;;15.17;;
21665;SDS011;10994;45.486;9.190;2023-03-01T14:35:35;19.20;;;14.43;;
21665;SDS011;10994;45.486;9.190;2023-03-01T14:38:02;20.00;;;13.93;;
21665;SDS011;10994;45.486;9.190;2023-03-01T14:42:55;20.50;;;14.47;;
21665;SDS011;10994;45.486;9.190;2023-03-01T14:45:22;21.03;;;14.33;;
21665;SDS011;10994;45.486;9.190;2023-03-01T14:47:50;22.57;;;14.83;;
21665;SDS011;10994;45.486;9.190;2023-03-01T14:50:40;21.10;;;15.63;;
21665;SDS011;10994;45.486;9.190;2023-03-01T14:53:03;20.23;;;13.83;;
21665;SDS011;10994;45.486;9.190;2023-03-01T14:55:31;24.40;;;15.07;;
21665;SDS011;10994;45.486;9.190;2023-03-01T14:57:59;22.17;;;15.57;;
21665;SDS011;10994;45.486;9.190;2023-03-01T15:00:26;21.80;;;14.60;;
21665;SDS011;10994;45.486;9.190;2023-03-01T15:02:53;21.57;;;14.33;;
21665;SDS011;10994;45.486;9.190;2023-03-01T15:05:25;24.07;;;15.63;;
21665;SDS011;10994;45.486;9.190;2023-03-01T15:07:51;21.47;;;15.13;;
21665;SDS011;10994;45.486;9.190;2023-03-01T15:10:22;21.10;;;14.83;;
21665;SDS011;10994;45.486;9.190;2023-03-01T15:12:48;20.73;;;14.73;;
21665;SDS011;10994;45.486;9.190;2023-03-01T15:15:31;20.77;;;14.37;;
21665;SDS011;10994;45.486;9.190;2023-03-01T15:18:01;23.63;;;15.63;;
21665;SDS011;10994;45.486;9.190;2023-03-01T15:20:28;19.80;;;14.53;;
21665;SDS011;10994;45.486;9.190;2023-03-01T15:22:55;20.40;;;13.73;;
21665;SDS011;10994;45.486;9.190;2023-03-01T15:25:23;20.07;;;14.20;;
21665;SDS011;10994;45.486;9.190;2023-03-01T15:27:51;17.73;;;13.30;;
21665;SDS011;10994;45.486;9.190;2023-03-01T15:30:25;23.17;;;15.97;;
21665;SDS011;10994;45.486;9.190;2023-03-01T15:35:45;25.40;;;16.73;;
21665;SDS011;10994;45.486;9.190;2023-03-01T15:38:29;20.40;;;14.80;;
21665;SDS011;10994;45.486;9.190;2023-03-01T15:40:57;19.47;;;13.63;;
21665;SDS011;10994;45.486;9.190;2023-03-01T15:43:40;18.20;;;13.33;;
21665;SDS011;10994;45.486;9.190;2023-03-01T15:46:12;21.57;;;14.77;;
21665;SDS011;10994;45.486;9.190;2023-03-01T15:48:44;19.63;;;13.97;;
21665;SDS011;10994;45.486;9.190;2023-03-01T15:51:10;16.77;;;13.53;;
21665;SDS011;10994;45.486;9.190;2023-03-01T15:53:37;20.70;;;13.93;;
21665;SDS011;10994;45.486;9.190;2023-03-01T15:56:03;22.33;;;14.57;;
21665;SDS011;10994;45.486;9.190;2023-03-01T15:58:32;21.63;;;14.00;;
21665;SDS011;10994;45.486;9.190;2023-03-01T16:00:58;21.70;;;13.93;;
21665;SDS011;10994;45.486;9.190;2023-03-01T16:03:24;19.70;;;13.87;;
21665;SDS011;10994;45.486;9.190;2023-03-01T16:05:50;16.63;;;13.10;;
21665;SDS011;10994;45.486;9.190;2023-03-01T16:08:17;19.87;;;13.23;;
21665;SDS011;10994;45.486;9.190;2023-03-01T16:10:43;18.20;;;13.73;;
21665;SDS011;10994;45.486;9.190;2023-03-01T16:13:10;20.97;;;15.20;;
21665;SDS011;10994;45.486;9.190;2023-03-01T16:15:36;21.70;;;16.23;;
21665;SDS011;10994;45.486;9.190;2023-03-01T16:18:03;19.80;;;14.27;;
21665;SDS011;10994;45.486;9.190;2023-03-01T16:20:35;19.20;;;13.60;;
21665;SDS011;10994;45.486;9.190;2023-03-01T16:23:02;18.73;;;13.67;;
21665;SDS011;10994;45.486;9.190;2023-03-01T16:25:29;18.37;;;14.00;;
21665;SDS011;10994;45.486;9.190;2023-03-01T16:27:55;20.97;;;13.63;;